TFFR/PTP METAR and TAF weather

Enter ICAO airport designator
Station Type Date Time Source
TFFR METAR 2019/06/26 16:00 UTC NOAA

TFFR 261600Z AUTO 12012KT 080V170 9999 FEW039 32/23 Q1017 NOSIG


Station Type Date Time Source
TFFR Decoded METAR 2019/06/26 16:00 UTC NOAA

Le Raizet, Guadeloupe, Guadeloupe (TFFR) 16-16N 061-31W 11M
Jun 26, 2019 - 12:00 PM EDT / 2019.06.26 1600 UTC
Wind: from the ESE (120 degrees) at 14 MPH (12 KT) (direction variable):0
Visibility: greater than 7 mile(s):0
Sky conditions: mostly clear
Temperature: 89 F (32 C)
Heat index: 96.8 F (36.0 C):1
Dew Point: 73 F (23 C)
Relative Humidity: 59%
Pressure (altimeter): 30.03 in. Hg (1017 hPa)
ob: TFFR 261600Z AUTO 12012KT 080V170 9999 FEW039 32/23 Q1017 NOSIG
cycle: 16

Station Type Date Time Source
TFFR TAF 2019/06/26 12:48 UTC NOAA

TAF TFFR 261100Z 2612/2712 10010KT 9999 SCT030 PROB30
TEMPO 2621/2624 4000 SHRA SCT020TCU BKN030 PROB40
TEMPO 2703/2710 4000 SHRA SCT020TCU

Example: see airport list